Time;durP1;ratioP1;P1;durP2;ratioP2;P2;SDS_P1;SDS_P2;PMS_P1;PMS_P2;Temp;Humidity;BMP_temperature;BMP_pressure;BME280_temperature;BME280_humidity;BME280_pressure;Samples;Min_cycle;Max_cycle;Signal;HPM_P1;HPM_P2
2023/08/11 00:00:21;;;;;;;13.90;5.80;;;;;;;18.04;54.94;100644.23;125513;1099;101878;-80
2023/08/11 00:03:12;;;;;;;15.97;5.97;;;;;;;17.99;54.95;100642.44;125147;1099;101800;-79
2023/08/11 00:05:43;;;;;;;15.43;6.17;;;;;;;17.94;55.35;100648.59;125700;1099;101931;-79
2023/08/11 00:08:15;;;;;;;12.97;5.77;;;;;;;17.94;55.35;100647.71;125678;1099;102277;-79
2023/08/11 00:10:46;;;;;;;13.50;6.23;;;;;;;17.92;55.33;100646.79;125539;1099;104268;-80
2023/08/11 00:13:17;;;;;;;14.27;6.07;;;;;;;17.90;55.57;100640.59;125517;1099;104654;-79
2023/08/11 00:15:49;;;;;;;17.30;6.53;;;;;;;17.89;56.16;100647.67;125626;1098;104275;-81
2023/08/11 00:18:20;;;;;;;15.57;6.00;;;;;;;17.84;56.61;100644.07;125648;1099;102381;-80
2023/08/11 00:20:51;;;;;;;14.50;5.67;;;;;;;17.81;56.50;100638.73;125523;1099;104198;-80
2023/08/11 00:23:24;;;;;;;13.03;6.10;;;;;;;17.75;57.30;100633.37;125862;1099;102362;-80
2023/08/11 00:25:55;;;;;;;11.87;5.43;;;;;;;17.69;57.56;100628.02;125792;1099;104211;-80
2023/08/11 00:28:27;;;;;;;16.17;5.90;;;;;;;17.63;57.39;100636.80;125505;1099;104070;-80
2023/08/11 00:30:58;;;;;;;11.87;5.73;;;;;;;17.57;57.74;100632.31;125379;1099;104239;-80
2023/08/11 00:33:29;;;;;;;14.25;5.90;;;;;;;17.54;57.37;100631.41;125448;1099;102225;-78
2023/08/11 00:36:01;;;;;;;11.63;5.97;;;;;;;17.54;57.78;100640.25;125461;1099;104238;-79
2023/08/11 00:38:39;;;;;;;13.83;5.70;;;;;;;17.52;57.66;100636.70;125578;1099;104137;-79
2023/08/11 00:41:11;;;;;;;13.97;5.93;;;;;;;17.49;57.83;100631.36;125476;1099;102306;-79
2023/08/11 00:43:42;;;;;;;13.53;5.53;;;;;;;17.46;58.45;100635.77;125472;1099;101931;-80
2023/08/11 00:46:15;;;;;;;14.63;5.63;;;;;;;17.42;59.08;100629.52;125631;1099;104160;-80
2023/08/11 00:48:51;;;;;;;12.37;5.35;;;;;;;17.34;59.38;100625.91;125224;1099;104240;-79
2023/08/11 00:51:25;;;;;;;14.53;6.10;;;;;;;17.31;58.92;100623.22;125597;1099;101795;-79
2023/08/11 00:53:58;;;;;;;15.23;6.03;;;;;;;17.24;59.80;100619.63;125817;1099;104172;-80
2023/08/11 00:56:30;;;;;;;13.55;5.33;;;;;;;17.19;60.28;100608.09;125973;1099;104175;-80
2023/08/11 00:59:02;;;;;;;12.30;5.70;;;;;;;17.15;60.19;100609.80;125916;1099;102002;-81
2023/08/11 01:01:35;;;;;;;14.70;5.93;;;;;;;17.10;60.56;100606.22;125460;1099;101896;-80
2023/08/11 01:04:07;;;;;;;12.00;5.50;;;;;;;17.06;60.02;100602.66;125085;1099;101910;-80
2023/08/11 01:06:43;;;;;;;15.50;5.85;;;;;;;17.03;60.45;100613.23;125714;1099;101843;-79
2023/08/11 01:09:28;;;;;;;13.83;6.30;;;;;;;17.00;60.67;100609.63;125117;1099;104245;-79
2023/08/11 01:12:08;;;;;;;12.45;5.30;;;;;;;16.97;60.53;100609.60;125662;1099;101870;-79
2023/08/11 01:14:37;;;;;;;15.33;5.60;;;;;;;16.93;61.21;100607.81;127238;1089;102509;31
2023/08/11 01:17:14;;;;;;;15.50;6.17;;;;;;;16.92;60.94;100604.25;125247;1098;101778;-78
2023/08/11 01:19:47;;;;;;;14.83;5.73;;;;;;;16.91;61.21;100598.92;125776;1099;104175;-79
2023/08/11 01:22:24;;;;;;;17.87;6.17;;;;;;;16.92;60.86;100595.42;125587;1099;103866;-80
2023/08/11 01:24:56;;;;;;;16.90;5.70;;;;;;;16.91;61.23;100598.92;125565;1099;101869;-79
2023/08/11 01:27:30;;;;;;;13.17;5.97;;;;;;;16.91;61.53;100597.19;125292;1099;102849;-78
2023/08/11 01:30:01;;;;;;;14.07;6.00;;;;;;;16.91;61.50;100594.54;125132;1099;102348;-80
2023/08/11 01:32:33;;;;;;;15.03;5.60;;;;;;;16.88;61.34;100598.03;124983;1102;101889;-77
2023/08/11 01:35:05;;;;;;;13.50;5.50;;;;;;;16.88;62.40;100595.38;124955;1099;103241;-77
2023/08/11 01:37:37;;;;;;;14.07;5.70;;;;;;;16.87;62.44;100593.59;124890;1099;104192;-78
2023/08/11 01:40:11;;;;;;;15.40;5.90;;;;;;;16.85;62.92;100595.31;124998;1099;102106;-79
2023/08/11 01:42:43;;;;;;;12.93;5.23;;;;;;;16.81;62.15;100596.17;124930;1099;104313;-79
2023/08/11 01:45:16;;;;;;;17.67;5.83;;;;;;;16.80;62.01;100591.73;124869;1099;102083;-77
2023/08/11 01:47:49;;;;;;;10.87;5.27;;;;;;;16.82;62.47;100594.40;124879;1099;104172;-77
2023/08/11 01:50:22;;;;;;;11.22;5.42;;;;;;;16.83;62.25;100589.12;124855;1099;102284;-78
2023/08/11 01:52:55;;;;;;;12.87;5.47;;;;;;;16.82;62.74;100589.09;124950;1099;104198;-79
2023/08/11 01:55:28;;;;;;;11.23;5.07;;;;;;;16.79;62.35;100592.59;124847;1099;102074;-78
2023/08/11 01:58:00;;;;;;;11.18;5.47;;;;;;;16.77;62.90;100588.16;124922;1099;104144;-79
2023/08/11 02:00:31;;;;;;;12.53;5.30;;;;;;;16.75;63.30;100592.53;124890;1102;102197;-78
2023/08/11 02:03:03;;;;;;;12.15;5.70;;;;;;;16.73;62.80;100586.34;124804;1099;102019;-77
2023/08/11 02:05:34;;;;;;;18.13;6.10;;;;;;;16.70;63.07;100600.42;124666;1102;104254;-77
2023/08/11 02:08:08;;;;;;;11.67;5.30;;;;;;;16.70;63.59;100600.42;124817;1099;102013;-79
2023/08/11 02:10:39;;;;;;;12.50;5.47;;;;;;;16.68;63.59;100597.76;124898;1097;101807;-77
2023/08/11 02:13:11;;;;;;;14.63;5.67;;;;;;;16.65;63.48;100594.19;124691;1099;104159;-76
2023/08/11 02:15:42;;;;;;;12.20;5.23;;;;;;;16.61;63.47;100597.66;124668;1099;102263;-76
2023/08/11 02:18:13;;;;;;;12.47;5.70;;;;;;;16.59;64.24;100594.99;124785;1102;104246;-77
2023/08/11 02:20:45;;;;;;;15.13;5.80;;;;;;;16.57;63.40;100594.09;124808;1099;104660;-77
2023/08/11 02:23:17;;;;;;;9.67;5.47;;;;;;;16.54;63.54;100594.94;124822;1099;102011;-77
2023/08/11 02:25:48;;;;;;;14.50;5.20;;;;;;;16.53;64.38;100593.17;124808;1098;104305;-77
2023/08/11 02:28:20;;;;;;;12.90;5.63;;;;;;;16.51;64.37;100600.19;124765;1102;102358;-77
2023/08/11 02:30:53;;;;;;;11.73;5.47;;;;;;;16.51;63.86;100594.89;124823;1099;104165;-77
2023/08/11 02:33:25;;;;;;;12.87;5.50;;;;;;;16.51;64.14;100599.31;124830;1099;102029;-77
2023/08/11 02:35:56;;;;;;;13.03;5.77;;;;;;;16.51;64.22;100601.96;124967;1099;102029;-78
2023/08/11 02:38:28;;;;;;;16.00;6.03;;;;;;;16.51;64.86;100600.19;124837;1102;104250;-78
2023/08/11 02:41:00;;;;;;;16.50;5.47;;;;;;;16.48;64.12;100607.22;124950;1099;101814;-78
2023/08/11 02:43:34;;;;;;;12.43;5.80;;;;;;;16.48;64.43;100613.39;124894;1099;102077;-78
2023/08/11 02:46:05;;;;;;;;;;;;;;;16.45;64.78;100608.05;124947;1099;102010;-77
2023/08/11 02:48:38;;;;;;;12.70;5.70;;;;;;;16.46;64.29;100607.20;124922;1099;102008;-77
2023/08/11 02:51:11;;;;;;;13.90;5.77;;;;;;;16.46;64.51;100614.27;124765;1099;102040;-77
2023/08/11 02:53:42;;;;;;;11.17;5.87;;;;;;;16.49;64.57;100609.89;124808;1099;104204;-77
2023/08/11 02:56:15;;;;;;;12.27;5.83;;;;;;;16.52;64.13;100601.98;124793;1099;104329;-78
2023/08/11 02:58:47;;;;;;;13.70;5.73;;;;;;;16.52;64.78;100601.98;124891;1099;104211;-77
2023/08/11 03:01:20;;;;;;;10.73;5.70;;;;;;;16.53;64.27;100606.42;124976;1099;101823;-78
2023/08/11 03:03:52;;;;;;;14.73;5.77;;;;;;;16.52;65.09;100611.70;124974;1102;102385;-78
2023/08/11 03:06:24;;;;;;;13.90;5.73;;;;;;;16.49;64.59;100612.53;124969;1099;101973;-79
2023/08/11 03:08:55;;;;;;;12.70;5.70;;;;;;;16.46;64.60;100611.62;124967;1100;101869;-78
2023/08/11 03:11:29;;;;;;;12.83;5.97;;;;;;;16.43;65.04;100623.05;124921;1099;102297;-78
2023/08/11 03:14:00;;;;;;;15.98;5.97;;;;;;;16.39;64.89;100625.62;124993;1102;102035;-78
2023/08/11 03:16:32;;;;;;;13.17;5.83;;;;;;;16.35;65.71;100627.36;125143;1099;101973;-79
2023/08/11 03:19:04;;;;;;;14.07;5.37;;;;;;;16.33;65.75;100621.13;125070;1099;104182;-79
2023/08/11 03:21:36;;;;;;;15.27;5.70;;;;;;;16.30;65.86;100621.11;125109;1099;101932;-79
2023/08/11 03:24:09;;;;;;;16.47;6.00;;;;;;;16.31;65.36;100623.78;124957;1099;104235;-78
2023/08/11 03:26:40;;;;;;;17.30;5.90;;;;;;;16.32;66.01;100624.66;125031;1099;102006;-81
2023/08/11 03:29:12;;;;;;;13.63;5.90;;;;;;;16.34;65.42;100622.92;124965;1102;104268;-78
2023/08/11 03:31:45;;;;;;;15.93;6.10;;;;;;;16.33;66.40;100637.02;124948;1102;104233;-79
2023/08/11 03:34:16;;;;;;;12.27;5.80;;;;;;;16.32;66.27;100630.84;124938;1101;104230;-79
2023/08/11 03:36:47;;;;;;;16.30;6.70;;;;;;;16.31;65.99;100638.77;125244;1099;104099;-78
2023/08/11 03:39:19;;;;;;;13.80;6.20;;;;;;;16.30;66.35;100637.88;125176;1100;102165;-79
2023/08/11 03:41:52;;;;;;;16.37;5.90;;;;;;;16.25;66.06;100636.94;125962;1099;102026;-80
2023/08/11 03:44:28;;;;;;;11.40;5.67;;;;;;;16.24;66.03;100643.09;126023;1096;101961;-79
2023/08/11 03:46:59;;;;;;;13.33;5.90;;;;;;;16.22;66.71;100644.83;126225;1096;101721;-78
2023/08/11 03:49:31;;;;;;;14.10;6.27;;;;;;;16.24;66.16;100652.80;125682;1099;102090;-78
2023/08/11 03:54:58;;;;;;;13.40;6.23;;;;;;;16.23;67.32;100657.18;126307;1093;104201;-77
2023/08/11 03:57:30;;;;;;;16.00;5.90;;;;;;;16.22;67.68;100658.06;126011;1096;101694;-79
2023/08/11 04:00:02;;;;;;;14.57;6.23;;;;;;;16.21;67.56;100643.04;125737;1101;104155;-79
2023/08/11 04:02:45;;;;;;;15.90;5.83;;;;;;;16.22;67.12;100639.53;125976;1093;104234;-78
2023/08/11 04:05:20;;;;;;;15.37;6.17;;;;;;;16.20;67.54;100646.55;125117;1102;104275;-77
2023/08/11 04:07:51;;;;;;;13.40;6.03;;;;;;;16.18;68.35;100649.17;125292;1102;102598;-78
2023/08/11 04:10:24;;;;;;;12.67;5.60;;;;;;;16.18;68.42;100653.58;125626;1101;101985;-78
2023/08/11 04:12:55;;;;;;;13.65;5.80;;;;;;;16.18;68.28;100653.58;125080;1103;104195;-81
2023/08/11 04:15:28;;;;;;;20.27;6.53;;;;;;;16.18;68.50;100654.46;125137;1102;104287;-80
2023/08/11 04:18:00;;;;;;;14.07;5.60;;;;;;;16.22;68.65;100660.72;126289;1102;102050;-79
2023/08/11 04:20:33;;;;;;;17.10;6.13;;;;;;;16.26;68.23;100651.05;126366;1093;102600;-80
2023/08/11 04:23:05;;;;;;;16.27;5.97;;;;;;;16.26;68.43;100645.75;125989;1105;101823;-80
2023/08/11 04:25:41;;;;;;;14.93;6.30;;;;;;;16.32;68.22;100649.38;126443;1093;102905;-79
2023/08/11 04:28:13;;;;;;;17.27;5.93;;;;;;;16.38;68.73;100650.32;126332;1093;101656;-79
2023/08/11 04:30:45;;;;;;;17.40;6.67;;;;;;;16.42;68.17;100650.39;126001;1103;101709;-79
2023/08/11 04:33:17;;;;;;;15.77;5.80;;;;;;;16.50;68.24;100658.44;125533;1105;101919;-79
2023/08/11 04:35:55;;;;;;;13.20;6.30;;;;;;;16.58;68.53;100650.60;126920;1096;103112;31
2023/08/11 04:38:27;;;;;;;15.57;6.10;;;;;;;16.65;68.61;100656.00;126072;1099;102577;-77
2023/08/11 04:40:58;;;;;;;15.03;6.07;;;;;;;16.74;68.46;100654.37;126169;1102;101409;-81
2023/08/11 04:43:30;;;;;;;15.97;5.33;;;;;;;16.81;68.51;100649.17;126862;1101;101904;-79
2023/08/11 04:46:01;;;;;;;12.63;5.20;;;;;;;16.87;68.76;100643.95;126206;1102;101920;-79
2023/08/11 04:48:33;;;;;;;13.30;5.60;;;;;;;16.94;68.70;100647.58;126152;1103;102137;-79
2023/08/11 04:51:04;;;;;;;13.33;5.30;;;;;;;17.00;68.55;100652.96;126208;1105;101945;-84
2023/08/11 04:53:36;;;;;;;16.97;5.78;;;;;;;17.06;68.63;100652.12;117400;1104;10001675;-82
2023/08/11 04:56:08;;;;;;;14.27;6.17;;;;;;;17.12;68.29;100653.97;126071;1105;102114;-82
2023/08/11 04:58:40;;;;;;;12.13;4.90;;;;;;;17.17;68.13;100653.16;117369;1102;10001294;-80
2023/08/11 05:01:12;;;;;;;16.13;5.77;;;;;;;17.24;68.01;100652.33;126567;1102;101611;-79
2023/08/11 05:03:47;;;;;;;12.60;5.73;;;;;;;17.34;67.99;100657.73;126579;1103;102147;-78
2023/08/11 05:06:18;;;;;;;10.60;5.33;;;;;;;17.41;67.45;100655.16;127385;1102;101298;-80
2023/08/11 05:08:50;;;;;;;11.70;5.30;;;;;;;17.52;67.31;100657.05;127173;1101;101246;-80
2023/08/11 05:11:21;;;;;;;11.63;5.10;;;;;;;17.60;67.17;100663.30;127247;1101;101087;-80
2023/08/11 05:13:54;;;;;;;15.93;5.67;;;;;;;17.71;67.00;100660.75;126965;1101;102021;-79
2023/08/11 05:16:26;;;;;;;12.43;5.03;;;;;;;17.75;66.87;100659.91;126876;1101;101906;-80
2023/08/11 05:18:58;;;;;;;14.70;5.40;;;;;;;17.82;66.46;100656.42;127052;1101;101427;-76
2023/08/11 05:21:33;;;;;;;13.62;5.65;;;;;;;17.89;66.56;100657.41;127005;1102;101383;-79
2023/08/11 05:24:06;;;;;;;15.40;5.13;;;;;;;17.98;66.60;100660.11;126131;1102;101944;-80
2023/08/11 05:26:57;;;;;;;14.20;5.33;;;;;;;18.08;66.44;100659.31;126721;1102;102095;-80
2023/08/11 05:29:30;;;;;;;13.93;5.30;;;;;;;18.19;66.45;100653.21;127277;1101;102269;-77
2023/08/11 05:32:01;;;;;;;13.43;5.20;;;;;;;18.27;66.07;100652.36;127303;1101;101272;-81
2023/08/11 05:34:36;;;;;;;13.03;5.43;;;;;;;18.37;65.79;100648.02;127440;1101;101111;-76
2023/08/11 05:37:18;;;;;;;10.93;4.93;;;;;;;18.46;65.54;100641.84;127314;1101;101112;-80
2023/08/11 05:39:50;;;;;;;14.20;4.90;;;;;;;18.56;65.63;100649.00;126142;1093;102236;-80
2023/08/11 05:42:27;;;;;;;10.08;4.37;;;;;;;18.67;64.90;100649.06;126235;1103;102385;-80
2023/08/11 05:44:58;;;;;;;12.37;5.03;;;;;;;18.77;65.04;100647.33;126763;1103;101636;-82
2023/08/11 05:47:37;;;;;;;9.90;4.60;;;;;;;18.88;64.40;100650.94;126098;1105;102131;-79
2023/08/11 05:50:11;;;;;;;11.90;4.97;;;;;;;18.98;64.26;100650.11;126919;1103;101428;-78
2023/08/11 05:52:42;;;;;;;12.05;5.00;;;;;;;19.09;64.69;100646.58;127223;1104;101313;-76
2023/08/11 05:55:17;;;;;;;10.00;4.77;;;;;;;19.19;64.57;100648.39;127164;1103;101915;-76
2023/08/11 05:57:57;;;;;;;11.77;4.73;;;;;;;19.31;63.83;100642.22;126783;1104;101333;-85
2023/08/11 06:00:45;;;;;;;14.70;5.07;;;;;;;19.44;63.77;100648.45;126980;1103;101218;-82
2023/08/11 06:03:57;;;;;;;;;;;;;;;;;;;;;
2023/08/11 06:06:33;;;;;;;11.07;4.10;;;;;;;19.64;63.32;100641.37;127412;1103;101249;-79
2023/08/11 06:09:16;;;;;;;16.00;4.90;;;;;;;19.73;63.33;100632.52;127327;1103;101969;-81
2023/08/11 06:11:58;;;;;;;11.63;4.60;;;;;;;19.82;62.65;100639.63;127112;1103;108269;-81
2023/08/11 06:14:46;;;;;;;8.70;4.30;;;;;;;19.94;62.41;100639.63;126267;1105;101201;-79
2023/08/11 06:20:47;;;;;;;13.83;4.73;;;;;;;20.18;62.52;100644.05;126282;1105;101610;-79
2023/08/11 06:23:26;;;;;;;13.83;4.47;;;;;;;20.32;62.63;100646.70;126657;1104;102022;-79
2023/08/11 06:26:05;;;;;;;13.37;4.40;;;;;;;20.43;61.97;100644.88;126693;1105;101281;-83
2023/08/11 06:28:51;;;;;;;12.87;4.50;;;;;;;20.58;62.03;100648.39;126315;1105;101677;-79
2023/08/11 06:31:27;;;;;;;13.85;4.50;;;;;;;20.72;61.21;100646.59;126288;1105;101384;-77
2023/08/11 06:33:59;;;;;;;12.43;4.70;;;;;;;20.86;61.01;100634.99;127184;1104;101308;-74
2023/08/11 06:36:31;;;;;;;10.40;4.17;;;;;;;20.99;61.14;100639.39;127283;1102;101985;-79
2023/08/11 06:39:14;;;;;;;16.10;4.73;;;;;;;21.13;60.00;100636.62;127274;1103;101313;-78
2023/08/11 06:41:56;;;;;;;15.53;4.40;;;;;;;21.25;59.90;100641.01;127091;1103;101118;-79
2023/08/11 06:44:57;;;;;;;17.25;4.62;;;;;;;21.38;59.12;100634.71;126306;1105;101165;-77
2023/08/11 06:47:41;;;;;;;14.27;4.37;;;;;;;21.54;59.90;100640.85;126331;1104;101650;-78
2023/08/11 06:50:25;;;;;;;9.43;4.10;;;;;;;21.72;58.23;100637.14;126359;1105;101944;-77
2023/08/11 06:53:08;;;;;;;;;;;;;;;;;;;;;
2023/08/11 06:56:11;;;;;;;9.90;4.07;;;;;;;22.02;57.83;100637.80;127247;1104;101597;-78
2023/08/11 06:58:49;;;;;;;16.40;4.30;;;;;;;22.21;57.44;100634.03;127290;1103;101238;-75
2023/08/11 07:01:23;;;;;;;10.27;4.20;;;;;;;22.38;57.39;100636.56;126326;1105;101334;-81
2023/08/11 07:03:56;;;;;;;11.67;4.30;;;;;;;22.59;56.65;100634.54;126300;1104;101922;-77
2023/08/11 07:06:29;;;;;;;9.63;4.13;;;;;;;22.77;56.56;100639.67;126288;1105;101334;-81
2023/08/11 07:09:00;;;;;;;13.27;4.83;;;;;;;22.97;55.86;100638.55;127303;1103;101128;-78
2023/08/11 07:11:32;;;;;;;13.70;4.10;;;;;;;23.17;55.30;100640.98;126283;1105;102271;-80
2023/08/11 07:14:04;;;;;;;10.43;4.23;;;;;;;23.38;55.04;100633.54;127252;1103;101089;-80
2023/08/11 07:16:45;;;;;;;12.30;4.67;;;;;;;23.56;54.93;100635.94;126333;1104;102868;-80
2023/08/11 07:19:27;;;;;;;15.27;4.67;;;;;;;23.81;54.43;100627.47;126368;1105;101495;-79
2023/08/11 07:22:04;;;;;;;10.00;3.73;;;;;;;24.05;52.13;100627.08;127193;1103;101212;-82
2023/08/11 07:24:53;;;;;;;8.97;3.70;;;;;;;24.36;50.53;100620.28;127361;1103;101124;-78
2023/08/11 07:27:26;;;;;;;9.53;3.80;;;;;;;24.55;50.31;100615.42;126317;1105;101256;-74
2023/08/11 07:30:23;;;;;;;7.30;3.80;;;;;;;24.73;48.10;100609.72;126719;1104;101959;-76
2023/08/11 07:32:56;;;;;;;5.53;3.20;;;;;;;24.96;48.23;100605.63;126293;1104;101420;-73
2023/08/11 07:35:30;;;;;;;9.73;3.60;;;;;;;25.18;46.43;100610.52;126328;1104;101285;-77
2023/08/11 07:38:18;;;;;;;5.40;3.27;;;;;;;25.34;45.34;100606.60;127335;1103;101198;-74
2023/08/11 07:41:11;;;;;;;5.90;3.23;;;;;;;25.46;45.11;100609.00;127351;1102;101349;-76
2023/08/11 07:44:04;;;;;;;7.37;3.50;;;;;;;25.69;44.99;100612.03;126399;1102;101988;-78
2023/08/11 07:46:51;;;;;;;9.50;3.73;;;;;;;25.84;44.50;100600.89;126352;1102;101302;-77
2023/08/11 07:49:35;;;;;;;7.07;3.70;;;;;;;25.97;43.26;100596.97;127409;1102;101539;-78
2023/08/11 07:52:18;;;;;;;4.40;3.20;;;;;;;26.07;43.18;100594.03;127274;1101;101369;-76
2023/08/11 07:54:50;;;;;;;7.77;3.43;;;;;;;26.27;43.38;100593.49;127437;1101;101061;-77
2023/08/11 08:01:08;;;;;;;7.23;3.73;;;;;;;26.34;40.45;100578.95;127122;1101;101572;-77
2023/08/11 08:03:41;;;;;;;9.03;3.57;;;;;;;26.48;40.91;100581.25;127309;1102;101564;-78
2023/08/11 08:06:20;;;;;;;6.43;3.43;;;;;;;26.53;40.13;100585.55;127280;1104;101169;-74
2023/08/11 08:09:02;;;;;;;9.27;3.40;;;;;;;26.56;40.12;100579.21;127123;1104;101067;-75
2023/08/11 08:11:54;;;;;;;7.50;3.47;;;;;;;26.68;40.92;100583.39;127079;1104;102300;-77
2023/08/11 08:14:57;;;;;;;6.85;3.50;;;;;;;26.84;38.37;100597.27;127041;1103;107952;-79
2023/08/11 08:17:43;;;;;;;11.97;5.00;;;;;;;26.84;38.07;100599.96;127034;1103;101401;-78
2023/08/11 08:20:17;;;;;;;8.77;4.20;;;;;;;26.83;37.93;100601.78;127326;1101;101265;-75
2023/08/11 08:23:18;;;;;;;5.17;3.47;;;;;;;26.71;37.58;100588.69;126376;1105;101380;-76
2023/08/11 08:25:51;;;;;;;6.33;3.40;;;;;;;26.67;37.56;100587.00;126371;1102;102241;-77
2023/08/11 08:28:23;;;;;;;6.53;3.57;;;;;;;26.75;37.28;100587.64;127394;1101;101263;-78
2023/08/11 08:30:59;;;;;;;6.30;3.70;;;;;;;26.80;37.91;100585.72;127399;1101;101225;-77
2023/08/11 08:33:34;;;;;;;6.97;3.43;;;;;;;26.85;36.98;100590.97;127250;1101;101616;-79
2023/08/11 08:36:13;;;;;;;7.60;3.50;;;;;;;26.95;37.85;100583.48;127414;1101;101097;-78
2023/08/11 08:38:58;;;;;;;9.57;4.03;;;;;;;27.11;36.50;100594.64;127406;1101;102387;-77
2023/08/11 08:41:37;;;;;;;9.53;4.00;;;;;;;27.22;36.97;100576.33;126309;1102;101285;-78
2023/08/11 08:44:45;;;;;;;7.23;3.47;;;;;;;27.35;36.68;100572.34;126500;1101;101610;-77
2023/08/11 08:47:32;;;;;;;5.37;3.57;;;;;;;27.44;35.84;100590.00;127350;1101;101187;-78
2023/08/11 08:50:36;;;;;;;8.93;4.07;;;;;;;27.36;36.05;100574.12;127275;1101;101593;-78
2023/08/11 08:53:13;;;;;;;12.33;3.80;;;;;;;27.39;35.74;100591.98;127406;1101;102042;-80
2023/08/11 08:56:04;;;;;;;6.90;3.60;;;;;;;27.33;35.48;100602.95;127384;1102;101613;-78
2023/08/11 08:58:56;;;;;;;7.50;3.77;;;;;;;27.23;35.45;100602.34;127247;1103;101582;-80
2023/08/11 09:01:40;;;;;;;8.20;3.80;;;;;;;27.26;36.04;100597.72;126180;1105;101539;-76
2023/08/11 09:04:25;;;;;;;6.00;3.60;;;;;;;27.28;35.78;100592.29;126551;1104;101254;-75
2023/08/11 09:07:11;;;;;;;7.03;3.80;;;;;;;27.32;35.46;100606.59;126856;1103;102380;-79
2023/08/11 09:10:12;;;;;;;10.00;3.70;;;;;;;27.43;35.59;100599.91;127156;1103;101433;-78
2023/08/11 09:12:51;;;;;;;9.07;3.33;;;;;;;27.49;35.16;100596.14;127101;1103;101297;-79
2023/08/11 09:18:34;;;;;;;10.10;3.77;;;;;;;27.59;34.64;100596.70;127304;1103;101070;-78
2023/08/11 09:21:26;;;;;;;6.53;3.60;;;;;;;27.59;34.95;100597.58;127142;1104;102286;-81
2023/08/11 09:24:52;;;;;;;6.30;3.33;;;;;;;27.60;35.01;100599.35;127308;1103;101304;-79
2023/08/11 09:28:16;;;;;;;8.00;3.60;;;;;;;27.53;34.26;100584.31;126751;1102;102181;-81
2023/08/11 09:34:40;;;;;;;8.90;4.00;;;;;;;27.51;34.04;100578.09;127033;1101;101321;-81
2023/08/11 09:37:56;;;;;;;7.23;3.87;;;;;;;27.57;33.73;100574.33;126940;1104;102615;-78
2023/08/11 09:47:55;;;;;;;9.37;3.80;;;;;;;27.46;33.23;100553.13;125949;1105;101572;-79
2023/08/11 09:50:37;;;;;;;7.33;4.03;;;;;;;27.45;32.63;100556.75;125972;1105;102424;-80
2023/08/11 09:57:00;;;;;;;6.20;3.70;;;;;;;27.35;31.54;100564.27;125821;1105;101663;-79
2023/08/11 09:59:57;;;;;;;8.10;4.13;;;;;;;27.40;32.37;100554.20;126283;1105;101177;-79
2023/08/11 10:02:41;;;;;;;6.00;3.57;;;;;;;27.35;32.41;100553.48;126181;1105;101327;-78
2023/08/11 10:05:41;;;;;;;5.80;3.90;;;;;;;27.29;32.72;100553.66;127310;1101;101083;-77
2023/08/11 10:08:34;;;;;;;7.77;3.87;;;;;;;27.28;32.74;100551.02;126948;1101;103172;-76
2023/08/11 10:11:29;;;;;;;6.17;3.57;;;;;;;27.35;33.06;100552.62;127378;1101;101317;-79
2023/08/11 10:14:10;;;;;;;8.80;4.17;;;;;;;27.45;32.84;100543.27;126529;1102;101540;-82
2023/08/11 10:16:50;;;;;;;6.20;3.77;;;;;;;27.54;32.91;100526.80;127388;1101;101214;-81
2023/08/11 10:19:28;;;;;;;9.60;4.10;;;;;;;27.62;32.90;100532.80;126326;1103;101337;-79
2023/08/11 10:22:02;;;;;;;10.47;4.53;;;;;;;27.67;32.50;100529.94;126387;1102;101930;-79
2023/08/11 10:25:00;;;;;;;5.37;3.60;;;;;;;27.67;32.33;100531.77;127375;1101;101305;-83
2023/08/11 10:31:31;;;;;;;;;;;;;;;;;;;;;
2023/08/11 10:34:51;;;;;;;12.80;4.40;;;;;;;27.60;32.30;100506.84;127473;1101;101203;-77
2023/08/11 10:37:51;;;;;;;9.83;4.10;;;;;;;27.62;32.44;100518.45;127440;1101;102017;-80
2023/08/11 10:41:02;;;;;;;7.73;4.17;;;;;;;27.69;32.05;100502.93;127314;1101;107105;-80
2023/08/11 10:47:35;;;;;;;5.90;4.00;;;;;;;27.75;31.72;100509.01;126379;1102;101265;-83
2023/08/11 10:50:49;;;;;;;5.70;4.10;;;;;;;27.85;32.01;100498.77;126392;1102;101770;-80
2023/08/11 10:53:22;;;;;;;10.40;4.30;;;;;;;27.91;32.15;100495.84;127260;1101;102127;-79
2023/08/11 10:56:31;;;;;;;7.70;3.80;;;;;;;27.95;31.53;100488.55;126289;1105;101286;-80
2023/08/11 10:59:41;;;;;;;;;;;;;;;;;;;;;
2023/08/11 11:02:19;;;;;;;7.50;3.73;;;;;;;27.96;31.66;100490.32;126288;1105;101871;-78
2023/08/11 11:05:35;;;;;;;8.07;3.73;;;;;;;27.98;31.30;100483.91;127206;1101;101071;-78
2023/08/11 11:08:33;;;;;;;6.10;3.90;;;;;;;27.92;31.14;100492.19;126244;1102;102108;-84
2023/08/11 11:11:36;;;;;;;;;;;;;;;;;;;;;
2023/08/11 11:14:24;;;;;;;6.97;3.97;;;;;;;28.04;29.91;100504.39;126102;1105;101827;-77
2023/08/11 11:17:06;;;;;;;8.63;4.10;;;;;;;27.88;30.02;100487.87;126116;1105;101427;-82
2023/08/11 11:19:46;;;;;;;10.17;3.77;;;;;;;27.83;30.08;100486.27;126289;1105;101288;-78
2023/08/11 11:22:28;;;;;;;7.70;3.80;;;;;;;27.94;30.02;100484.95;126295;1105;101932;-78
2023/08/11 11:25:12;;;;;;;9.63;4.33;;;;;;;28.09;30.38;100477.25;127190;1101;101219;-76
2023/08/11 11:27:48;;;;;;;6.17;4.00;;;;;;;28.24;30.03;100482.07;127417;1101;101211;-75
2023/08/11 11:30:55;;;;;;;8.10;3.90;;;;;;;28.35;30.29;100483.49;126343;1102;101174;-74
2023/08/11 11:33:33;;;;;;;8.27;3.80;;;;;;;28.48;30.12;100473.96;126294;1102;101122;-73
2023/08/11 11:36:07;;;;;;;6.70;3.70;;;;;;;28.62;29.77;100485.11;126407;1102;101932;-74
2023/08/11 11:41:58;;;;;;;5.40;3.73;;;;;;;28.60;29.72;100496.94;127295;1101;102047;-80
2023/08/11 11:44:41;;;;;;;10.00;4.50;;;;;;;28.33;29.62;100492.52;126333;1102;101763;-76
2023/08/11 11:47:42;;;;;;;9.30;4.40;;;;;;;28.30;29.75;100494.45;126513;1101;101240;-76
2023/08/11 11:50:47;;;;;;;7.60;4.20;;;;;;;28.43;29.58;100484.94;127397;1102;101938;-79
2023/08/11 11:54:30;;;;;;;9.90;4.43;;;;;;;28.68;29.65;100498.37;127117;1101;107170;-84
2023/08/11 11:57:30;;;;;;;8.97;4.17;;;;;;;28.90;28.71;100510.15;127321;1101;101374;-79
2023/08/11 12:00:20;;;;;;;9.00;4.25;;;;;;;28.75;28.97;100504.43;127391;1101;101172;-81
2023/08/11 12:02:57;;;;;;;7.20;4.03;;;;;;;28.48;29.01;100501.81;126340;1105;101233;-76
2023/08/11 12:05:45;;;;;;;9.20;3.90;;;;;;;28.41;29.43;100496.75;127106;1103;102550;-80
2023/08/11 12:08:25;;;;;;;7.63;4.17;;;;;;;28.48;29.09;100495.55;126336;1105;101757;-81
2023/08/11 12:14:33;;;;;;;6.40;3.90;;;;;;;28.23;29.44;100501.88;126225;1105;101693;-77
2023/08/11 12:17:34;;;;;;;7.40;4.03;;;;;;;28.51;28.90;100490.03;126304;1105;101298;-79
2023/08/11 12:20:23;;;;;;;6.95;4.00;;;;;;;28.71;28.93;100483.88;126286;1105;102052;-79
2023/08/11 12:22:59;;;;;;;5.50;3.80;;;;;;;28.86;28.87;100483.27;126188;1102;101414;-75
2023/08/11 12:25:36;;;;;;;7.13;4.00;;;;;;;28.99;28.72;100472.83;127193;1102;101598;-77
2023/08/11 12:28:36;;;;;;;;;;;;;;;;;;;;;
2023/08/11 12:31:20;;;;;;;5.07;3.70;;;;;;;29.05;27.86;100480.68;127148;1103;101199;-76
2023/08/11 12:34:03;;;;;;;6.57;3.93;;;;;;;29.11;27.57;100494.86;127075;1102;101921;-76
2023/08/11 12:36:37;;;;;;;5.07;3.73;;;;;;;28.89;27.90;100502.98;127292;1101;101656;-80
2023/08/11 12:39:14;;;;;;;6.60;3.70;;;;;;;28.68;28.10;100492.97;127376;1101;101271;-77
2023/08/11 12:41:56;;;;;;;6.70;3.97;;;;;;;28.55;28.11;100488.98;127081;1102;101319;-74
2023/08/11 12:44:30;;;;;;;7.10;3.97;;;;;;;28.56;28.50;100479.92;126831;1102;101275;-75
2023/08/11 12:47:01;;;;;;;5.43;3.77;;;;;;;28.61;27.87;100483.38;126269;1105;101941;-80
2023/08/11 12:49:33;;;;;;;8.80;3.70;;;;;;;28.73;28.46;100486.52;126927;1104;101327;-77